This is the latest recevied weather packets stored in our database for station/object KE9ADS. If no packets are shown the sender has not sent any weather packets the latest 10 day(s).
| Time | Temp. | Humidity | Pressure | Rain* | Wind** | Luminosity | Snow |
|---|---|---|---|---|---|---|---|
| 1776962228 | 25.56° C | 53% | 1012.5 hPa | 0 mm | - | 749 W/m² | - |
| 1776961628 | 25.56° C | 52% | 1012.4 hPa | 0 mm | - | 686 W/m² | - |
| 1776961027 | 25.56° C | 52% | 1012.4 hPa | 0 mm | - | 727 W/m² | - |
| 1776960422 | 25° C | 55% | 1012.4 hPa | 0 mm | - | 694 W/m² | - |
| 1776959819 | 25° C | 55% | 1012.5 hPa | 0 mm | - | 680 W/m² | - |
| 1776959217 | 24.44° C | 58% | 1012.5 hPa | 0 mm | - | 578 W/m² | - |
| 1776958616 | 24.44° C | 58% | 1012.4 hPa | 0 mm | - | 579 W/m² | - |
| 1776958011 | 23.89° C | 60% | 1012.8 hPa | 0 mm | - | 598 W/m² | - |
| 1776957408 | 23.89° C | 61% | 1012.8 hPa | 0 mm | - | 539 W/m² | - |
| 1776956804 | 23.89° C | 62% | 1012.8 hPa | 0 mm | - | 549 W/m² | - |
| 1776956203 | 23.89° C | 63% | 1012.8 hPa | 0 mm | - | 496 W/m² | - |
| 1776955601 | 23.33° C | 65% | 1012.9 hPa | 0 mm | - | 506 W/m² | - |
| 1776954999 | 22.78° C | 66% | 1013.1 hPa | 0 mm | - | 474 W/m² | - |
| 1776954395 | 22.22° C | 68% | 1013.2 hPa | 0 mm | - | 391 W/m² | - |
| 1776953791 | 21.67° C | 70% | 1013.2 hPa | 0 mm | - | 368 W/m² | - |
| 1776953186 | 21.67° C | 70% | 1013.5 hPa | 0 mm | - | 370 W/m² | - |
| 1776952584 | 21.11° C | 73% | 1013.5 hPa | 0 mm | - | 348 W/m² | - |
| 1776951982 | 20.56° C | 74% | 1013.6 hPa | 0 mm | - | 302 W/m² | - |
| 1776951381 | 20.56° C | 75% | 1013.6 hPa | 0 mm | - | 227 W/m² | - |
| 1776950780 | 19.44° C | 79% | 1013.8 hPa | 0 mm | - | 241 W/m² | - |
| 1776950174 | 18.89° C | 80% | 1013.8 hPa | 0 mm | - | 210 W/m² | - |
| 1776949574 | 18.33° C | 82% | 1013.9 hPa | 0 mm | - | 179 W/m² | - |
| 1776948970 | 17.78° C | 83% | 1014 hPa | 0 mm | - | 151 W/m² | - |
| 1776948369 | 17.22° C | 85% | 1014.1 hPa | 0 mm | - | 106 W/m² | - |
| 1776947764 | 16.67° C | 86% | 1014 hPa | 0 mm | - | 81 W/m² | - |
* Rain latest hour (hover to see other rain measurements)
** Current wind speed in m/s (hover to see current wind gust speed)